Pagrindinis puslapis
METAR-TAF:

METAR-TAF

Oro uostai :

Obihiro, Japonija

platuma: 42-44N, ilguma: 143-13E, Aukštis: 149 m

Dabartinis oras

Ataskaita buvo paskelbta 40 minutes, ne 03:00 UTC
Vėjas 8 kt iš Šiaurės/Šiaurės Vakarų
Temperatūra -4°C
Drėgmė 93%
Slėgis 1006 hPa
Matomumas: 3200 m
Mažai debesys ne aukštis 400 ft
Su prošvaistėmis ne aukštis 2500 ft
sniegas

METAR: RJCB 200300Z 34008KT 3200 -SHSN FEW004 BKN025 M04/M05 Q1006

Laikas: 12:40 (03:40 UTC)

Prognozė

Ataskaita buvo paskelbta 4 valandos ir 33 minutes, ne 23:07 UTC
Prognozė galioja nuo 20 metu 00 UTC su 21 metu 06 UTC
Vėjas 13 kt iš Šiaurės/Šiaurės Vakarų
Matomumas 10 km arba daugiau
Mažai debesys ne aukštis 600 ft
Su prošvaistėmis ne aukštis 1500 ft
Laikinai
nuo 20 metu 00 UTC su 20 metu 03 UTC
Matomumas: 0500 m
ne aukštis 300 ft
sniegas
Laikinai
nuo 20 metu 03 UTC su 20 metu 09 UTC
Matomumas: 2000 m
sniegas

TAF: RJCB 192307Z 2000/2106 33013KT 9999 FEW006 BKN015 TEMPO 2000/2003 0500 SHSN VV003 TEMPO 2003/2009 2000 -SHSN

Orai ataskaitas ir orų prognozės (METAR, TAF).

turimą stotys yra geltonos ir raudonos taškus žemėlapyje.

Perkelti pele per norėdami pamatyti stoties vardą.

Tada spustelėkite, norėdami matyti oro stebėjimo ir prognozės.

Norėdami pakeisti žemėlapį: spustelėkite ant žalios mygtukų su juodo kryžiaus žemyn,; žalią mygtuką su brūkšneliu, jei norite nutolinti; arba žalių rodyklių gretimoms žemėlapius.


METAR-TAF: